Time;durP1;ratioP1;P1;durP2;ratioP2;P2;SDS_P1;SDS_P2;PMS_P1;PMS_P2;Temp;Humidity;BMP_temperature;BMP_pressure;BME280_temperature;BME280_humidity;BME280_pressure;Samples;Min_cycle;Max_cycle;Signal;HPM_P1;HPM_P2
2022/07/24 00:01:33;;;;;;;1.02;0.80;;;18.80;68.30;;;;;;4900175;29;21581;-75
2022/07/24 00:03:59;;;;;;;0.90;0.90;;;18.80;68.30;;;;;;4900739;29;20375;-75
2022/07/24 00:06:24;;;;;;;1.35;0.93;;;18.80;68.40;;;;;;4884016;29;20634;-74
2022/07/24 00:08:50;;;;;;;0.80;0.80;;;18.70;68.50;;;;;;4899968;29;20040;-74
2022/07/24 00:11:16;;;;;;;0.70;0.70;;;18.70;68.50;;;;;;4902721;29;20029;-75
2022/07/24 00:13:42;;;;;;;0.70;0.70;;;18.70;68.60;;;;;;4900183;29;20033;-74
2022/07/24 00:16:08;;;;;;;0.82;0.80;;;18.70;68.80;;;;;;4898139;29;20032;-75
2022/07/24 00:18:34;;;;;;;0.80;0.80;;;18.70;68.90;;;;;;4898675;29;20073;-75
2022/07/24 00:21:00;;;;;;;0.80;0.80;;;18.70;68.90;;;;;;4865104;29;20045;-75
2022/07/24 00:23:26;;;;;;;0.70;0.70;;;18.60;68.80;;;;;;4899842;29;20108;-75
2022/07/24 00:25:52;;;;;;;0.80;0.80;;;18.70;69.00;;;;;;4879346;29;20085;-75
2022/07/24 00:28:18;;;;;;;0.73;0.65;;;18.70;69.00;;;;;;4865356;29;20040;-75
2022/07/24 00:30:44;;;;;;;0.98;0.90;;;18.60;69.10;;;;;;4897191;29;20029;-75
2022/07/24 00:33:09;;;;;;;1.48;0.90;;;18.50;69.10;;;;;;4897330;29;20063;-75
2022/07/24 00:35:36;;;;;;;0.73;0.73;;;18.50;69.30;;;;;;4897359;29;20040;-75
2022/07/24 00:38:02;;;;;;;0.70;0.70;;;18.50;69.40;;;;;;4897285;29;20046;-74
2022/07/24 00:40:27;;;;;;;0.95;0.88;;;18.50;69.50;;;;;;4880368;29;20594;-75
2022/07/24 00:42:53;;;;;;;0.75;0.75;;;18.40;69.50;;;;;;4864773;29;20123;-75
2022/07/24 00:45:19;;;;;;;0.77;0.77;;;18.40;69.60;;;;;;4897903;29;20036;-75
2022/07/24 00:47:45;;;;;;;0.88;0.85;;;18.40;69.70;;;;;;4896787;29;20184;-75
2022/07/24 00:50:11;;;;;;;0.82;0.80;;;18.40;69.80;;;;;;4897027;29;20131;-74
2022/07/24 00:52:38;;;;;;;0.82;0.82;;;18.30;69.80;;;;;;4880060;29;20091;-74
2022/07/24 00:55:04;;;;;;;1.17;0.90;;;18.30;69.90;;;;;;4897314;29;20453;-74
2022/07/24 00:57:30;;;;;;;0.73;0.73;;;18.30;70.00;;;;;;4896466;29;20084;-74
2022/07/24 00:59:56;;;;;;;0.80;0.80;;;18.30;70.10;;;;;;4879798;29;20068;-74
2022/07/24 01:02:23;;;;;;;0.90;0.90;;;18.20;70.10;;;;;;4897032;29;20137;-74
2022/07/24 01:04:50;;;;;;;0.98;0.90;;;18.20;70.20;;;;;;4896898;29;20037;-74
2022/07/24 01:07:16;;;;;;;1.05;0.93;;;18.20;70.30;;;;;;4896400;29;20816;-74
2022/07/24 01:09:43;;;;;;;1.00;0.90;;;18.20;70.40;;;;;;4879009;29;20040;-74
2022/07/24 01:12:09;;;;;;;1.13;0.90;;;18.20;70.40;;;;;;4896698;29;20070;-74
2022/07/24 01:14:35;;;;;;;0.60;0.60;;;18.10;70.50;;;;;;4897161;29;20523;-74
2022/07/24 01:17:01;;;;;;;0.82;0.80;;;18.20;70.60;;;;;;4881924;29;20108;-74
2022/07/24 01:19:27;;;;;;;0.98;0.90;;;18.10;70.60;;;;;;4896982;29;20539;-74
2022/07/24 01:21:53;;;;;;;1.08;0.80;;;18.20;70.70;;;;;;4896918;29;20261;-75
2022/07/24 01:24:20;;;;;;;1.00;0.90;;;18.00;70.60;;;;;;4914278;29;20037;-74
2022/07/24 01:26:47;;;;;;;1.45;1.10;;;18.00;70.70;;;;;;4914940;29;20127;-74
2022/07/24 01:29:14;;;;;;;1.20;1.00;;;18.00;70.90;;;;;;4915621;29;20040;-74
2022/07/24 01:31:39;;;;;;;1.25;1.00;;;17.90;70.90;;;;;;4913998;29;20063;-74
2022/07/24 01:34:05;;;;;;;0.77;0.77;;;18.00;71.00;;;;;;4915823;29;20475;-74
2022/07/24 01:36:32;;;;;;;1.45;1.00;;;17.90;71.00;;;;;;4915315;29;20479;-74
2022/07/24 01:38:58;;;;;;;0.95;0.80;;;17.80;71.10;;;;;;4915943;29;20047;-74
2022/07/24 01:41:23;;;;;;;1.10;0.95;;;17.80;71.10;;;;;;4915564;29;20032;-75
2022/07/24 01:43:49;;;;;;;0.73;0.70;;;17.80;71.20;;;;;;4864818;29;20051;-75
2022/07/24 01:46:15;;;;;;;0.80;0.80;;;17.80;71.20;;;;;;4879959;29;20496;-74
2022/07/24 01:48:42;;;;;;;0.85;0.85;;;17.80;71.30;;;;;;4896642;29;20043;-74
2022/07/24 01:51:08;;;;;;;1.00;0.90;;;17.70;71.40;;;;;;4896175;29;20480;-74
2022/07/24 01:53:35;;;;;;;1.00;0.90;;;17.70;71.40;;;;;;4896077;29;20048;-75
2022/07/24 01:56:01;;;;;;;1.42;1.00;;;17.70;71.50;;;;;;4896038;29;20048;-75
2022/07/24 01:58:27;;;;;;;2.45;0.98;;;17.70;71.60;;;;;;4893944;29;20100;-74
2022/07/24 02:00:54;;;;;;;1.00;0.90;;;17.70;71.60;;;;;;4879244;29;20052;-74
2022/07/24 02:03:20;;;;;;;0.90;0.70;;;17.50;71.60;;;;;;4879252;29;20040;-74
2022/07/24 02:05:46;;;;;;;1.15;0.98;;;17.60;71.70;;;;;;4896131;29;20056;-74
2022/07/24 02:08:12;;;;;;;0.65;0.65;;;17.60;71.70;;;;;;4863746;29;20419;-74
2022/07/24 02:10:38;;;;;;;1.00;0.90;;;17.60;71.80;;;;;;4896643;29;20040;-74
2022/07/24 02:13:04;;;;;;;0.75;0.75;;;17.50;71.70;;;;;;4895907;29;20033;-74
2022/07/24 02:15:30;;;;;;;0.98;0.90;;;17.60;71.80;;;;;;4895817;29;20059;-74
2022/07/24 02:17:58;;;;;;;0.82;0.77;;;17.50;71.80;;;;;;4879702;29;20144;-74
2022/07/24 02:20:25;;;;;;;0.98;0.80;;;17.50;71.90;;;;;;4877205;29;20076;-74
2022/07/24 02:22:51;;;;;;;0.93;0.90;;;17.50;71.90;;;;;;4879101;29;20032;-74
2022/07/24 02:25:16;;;;;;;1.00;0.90;;;17.50;72.00;;;;;;4863570;29;20041;-74
2022/07/24 02:27:42;;;;;;;0.80;0.80;;;17.50;72.00;;;;;;4863413;29;20049;-74
2022/07/24 02:30:12;;;;;;;1.08;0.90;;;17.50;72.00;;;;;;4878923;29;20128;-74
2022/07/24 02:32:38;;;;;;;1.20;1.00;;;17.40;72.00;;;;;;4894020;29;20044;-74
2022/07/24 02:35:05;;;;;;;0.70;0.70;;;17.50;72.00;;;;;;4879300;29;20364;-74
2022/07/24 02:37:31;;;;;;;1.02;0.80;;;17.40;72.00;;;;;;4894756;29;20075;-75
2022/07/24 02:39:57;;;;;;;0.70;0.70;;;17.50;72.10;;;;;;4880611;29;20044;-74
2022/07/24 02:42:23;;;;;;;0.70;0.70;;;17.40;72.00;;;;;;4882010;29;20180;-74
2022/07/24 02:44:48;;;;;;;0.88;0.80;;;17.40;72.00;;;;;;4899128;29;20154;-75
2022/07/24 02:47:14;;;;;;;0.85;0.85;;;17.50;72.10;;;;;;4866755;29;20132;-74
2022/07/24 02:49:40;;;;;;;0.70;0.70;;;17.40;72.00;;;;;;4899143;29;20037;-74
2022/07/24 02:52:06;;;;;;;0.93;0.80;;;17.40;72.00;;;;;;4898935;29;20033;-74
2022/07/24 02:54:31;;;;;;;0.70;0.70;;;17.40;72.10;;;;;;4901456;29;20033;-74
2022/07/24 02:56:57;;;;;;;1.10;1.00;;;17.40;72.10;;;;;;4883899;29;20510;-74
2022/07/24 02:59:23;;;;;;;1.33;1.02;;;17.40;72.20;;;;;;4881771;29;20037;-74
2022/07/24 03:01:48;;;;;;;1.05;0.90;;;17.40;72.20;;;;;;4881818;29;20036;-74
2022/07/24 03:04:14;;;;;;;0.77;0.77;;;17.30;72.10;;;;;;4881673;29;20052;-75
2022/07/24 03:06:40;;;;;;;1.83;1.10;;;17.30;72.20;;;;;;4881179;29;20096;-74
2022/07/24 03:09:05;;;;;;;0.68;0.65;;;17.30;72.30;;;;;;4891169;29;20555;-74
2022/07/24 03:11:31;;;;;;;1.05;0.93;;;17.30;72.30;;;;;;4898651;29;20064;-74
2022/07/24 03:13:57;;;;;;;1.10;0.85;;;17.20;72.30;;;;;;4900339;29;20036;-74
2022/07/24 03:16:23;;;;;;;0.80;0.80;;;17.30;72.40;;;;;;4881780;29;20088;-74
2022/07/24 03:18:48;;;;;;;1.23;1.00;;;17.20;72.40;;;;;;4883318;29;20045;-74
2022/07/24 03:21:15;;;;;;;0.70;0.70;;;17.20;72.60;;;;;;4898540;29;20507;-74
2022/07/24 03:23:41;;;;;;;0.80;0.80;;;17.20;72.70;;;;;;4898805;29;20033;-74
2022/07/24 03:26:07;;;;;;;0.93;0.77;;;17.10;72.70;;;;;;4881362;29;20071;-74
2022/07/24 03:28:34;;;;;;;0.80;0.80;;;17.10;72.80;;;;;;4898222;29;20033;-74
2022/07/24 03:31:00;;;;;;;1.17;0.88;;;17.10;72.90;;;;;;4881753;29;20051;-74
2022/07/24 03:33:26;;;;;;;0.98;0.90;;;17.10;73.00;;;;;;4898048;29;20037;-74
2022/07/24 03:35:52;;;;;;;1.02;0.90;;;17.10;73.00;;;;;;4881199;29;20127;-74
2022/07/24 03:38:18;;;;;;;0.93;0.88;;;17.10;73.00;;;;;;4897980;29;20052;-74
2022/07/24 03:40:44;;;;;;;0.77;0.77;;;17.10;73.10;;;;;;4881242;29;20045;-74
2022/07/24 03:43:10;;;;;;;1.15;1.00;;;17.00;73.00;;;;;;4898012;29;20381;-74
2022/07/24 03:45:36;;;;;;;1.42;0.93;;;17.10;73.10;;;;;;4897724;29;20088;-74
2022/07/24 03:48:02;;;;;;;1.10;1.00;;;17.00;73.10;;;;;;4897676;29;20127;-74
2022/07/24 03:50:28;;;;;;;1.05;0.95;;;17.00;73.10;;;;;;4880135;29;20479;-74
2022/07/24 03:52:53;;;;;;;1.20;0.95;;;17.00;73.10;;;;;;4897850;29;20124;-74
2022/07/24 03:55:19;;;;;;;0.95;0.90;;;17.00;73.20;;;;;;4897676;29;20044;-74
2022/07/24 03:57:45;;;;;;;1.33;1.00;;;17.00;73.30;;;;;;4897508;29;20039;-74
2022/07/24 04:00:12;;;;;;;1.27;1.00;;;16.90;73.30;;;;;;4897665;29;20059;-74
2022/07/24 04:02:37;;;;;;;1.60;0.80;;;16.90;73.40;;;;;;4894147;29;20044;-74
2022/07/24 04:05:06;;;;;;;0.93;0.70;;;16.90;73.40;;;;;;4916575;29;20046;-74
2022/07/24 04:07:32;;;;;;;1.00;0.90;;;16.90;73.50;;;;;;4899330;29;20377;-74
2022/07/24 04:09:58;;;;;;;1.10;0.90;;;16.80;73.40;;;;;;4897956;29;20047;-75
2022/07/24 04:12:23;;;;;;;1.20;1.00;;;16.90;73.50;;;;;;4897505;29;20093;-74
2022/07/24 04:14:49;;;;;;;1.70;1.02;;;16.90;73.50;;;;;;4897917;29;20044;-74
2022/07/24 04:17:15;;;;;;;0.88;0.88;;;16.90;73.50;;;;;;4880664;29;20044;-74
2022/07/24 04:19:40;;;;;;;1.35;1.10;;;16.90;73.50;;;;;;4881310;29;20048;-74
2022/07/24 04:22:06;;;;;;;1.00;0.90;;;16.90;73.50;;;;;;4897413;29;20084;-74
2022/07/24 04:24:32;;;;;;;1.17;0.90;;;16.90;73.60;;;;;;4894067;29;20041;-74
2022/07/24 04:26:58;;;;;;;1.17;0.95;;;16.90;74.20;;;;;;4897573;29;20092;-74
2022/07/24 04:29:23;;;;;;;0.98;0.93;;;17.00;73.60;;;;;;4865612;29;20032;-74
2022/07/24 04:31:49;;;;;;;0.80;0.80;;;17.00;73.60;;;;;;4916238;29;20546;-74
2022/07/24 04:34:15;;;;;;;0.98;0.90;;;17.00;73.50;;;;;;4899155;29;20083;-75
2022/07/24 04:36:40;;;;;;;1.50;0.85;;;17.00;73.50;;;;;;4916109;29;20036;-74
2022/07/24 04:39:06;;;;;;;1.10;0.90;;;17.00;73.60;;;;;;4899105;29;20165;-75
2022/07/24 04:41:32;;;;;;;0.80;0.80;;;17.00;73.60;;;;;;4908700;29;20041;-75
2022/07/24 04:43:58;;;;;;;1.75;1.23;;;16.90;73.50;;;;;;4897329;29;20440;-75
2022/07/24 04:46:23;;;;;;;0.93;0.90;;;17.10;73.50;;;;;;4880383;29;20499;-74
2022/07/24 04:48:50;;;;;;;1.33;1.00;;;17.00;73.40;;;;;;4880348;29;20035;-74
2022/07/24 04:51:16;;;;;;;1.40;1.00;;;17.20;73.50;;;;;;4880565;29;20052;-75
2022/07/24 04:53:42;;;;;;;1.08;0.95;;;17.10;73.40;;;;;;4897212;29;20124;-74
2022/07/24 04:56:07;;;;;;;1.15;1.00;;;17.20;73.50;;;;;;4880879;29;20037;-74
2022/07/24 04:58:33;;;;;;;1.13;1.02;;;17.20;73.50;;;;;;4880855;29;20041;-74
2022/07/24 05:01:00;;;;;;;0.95;0.80;;;17.10;73.40;;;;;;4900710;29;20048;-74
2022/07/24 05:03:26;;;;;;;1.38;1.05;;;17.30;73.50;;;;;;4879686;29;20044;-74
2022/07/24 05:05:51;;;;;;;1.13;1.02;;;17.30;73.50;;;;;;4879966;29;20535;-74
2022/07/24 05:08:17;;;;;;;2.13;0.95;;;17.30;73.40;;;;;;4896637;29;20907;-74
2022/07/24 05:10:43;;;;;;;0.80;0.80;;;17.40;73.40;;;;;;4878728;29;20072;-74
2022/07/24 05:13:09;;;;;;;1.55;1.10;;;17.40;73.30;;;;;;4896599;29;20037;-74
2022/07/24 05:15:35;;;;;;;1.25;1.15;;;17.40;73.20;;;;;;4879979;29;20036;-74
2022/07/24 05:18:00;;;;;;;2.67;1.58;;;17.50;73.20;;;;;;4898070;29;20043;-74
2022/07/24 05:20:26;;;;;;;1.35;1.20;;;17.60;73.20;;;;;;4864219;29;20044;-74
2022/07/24 05:22:52;;;;;;;1.80;1.48;;;17.70;73.10;;;;;;4879551;29;20112;-74
2022/07/24 05:25:18;;;;;;;1.38;1.13;;;17.70;72.90;;;;;;4897148;29;20060;-74
2022/07/24 05:27:44;;;;;;;1.25;1.00;;;17.70;72.80;;;;;;4879572;29;20045;-74
2022/07/24 05:30:10;;;;;;;2.03;1.40;;;18.00;72.80;;;;;;4880264;29;20097;-74
2022/07/24 05:32:36;;;;;;;3.28;1.52;;;18.00;72.80;;;;;;4897012;29;20044;-74
2022/07/24 05:35:02;;;;;;;3.05;1.70;;;18.00;72.70;;;;;;4879563;29;20036;-74
2022/07/24 05:37:28;;;;;;;2.45;1.42;;;18.10;72.70;;;;;;4896445;29;20070;-74
2022/07/24 05:39:54;;;;;;;3.10;1.80;;;18.20;72.60;;;;;;4863932;29;20041;-74
2022/07/24 05:42:19;;;;;;;2.63;1.70;;;18.20;72.50;;;;;;4896623;29;20504;-74
2022/07/24 05:44:45;;;;;;;2.17;1.60;;;18.30;72.50;;;;;;4880228;29;20060;-75
2022/07/24 05:47:11;;;;;;;1.73;1.40;;;18.30;72.40;;;;;;4896073;29;20037;-74
2022/07/24 05:49:36;;;;;;;2.22;1.40;;;18.40;72.40;;;;;;4879706;29;20041;-74
2022/07/24 05:52:02;;;;;;;3.08;2.20;;;18.50;72.50;;;;;;4879389;29;20032;-74
2022/07/24 05:54:28;;;;;;;2.17;1.75;;;18.50;72.40;;;;;;4896391;29;20053;-74
2022/07/24 05:56:54;;;;;;;2.80;1.88;;;18.60;72.40;;;;;;4896286;29;20061;-74
2022/07/24 05:59:19;;;;;;;3.75;2.38;;;18.60;72.40;;;;;;4895864;29;20032;-74
2022/07/24 06:01:45;;;;;;;3.08;2.08;;;18.60;72.40;;;;;;4896129;29;20080;-75
2022/07/24 06:04:11;;;;;;;3.40;2.20;;;18.80;72.40;;;;;;4879798;29;20544;-74
2022/07/24 06:06:37;;;;;;;2.60;1.85;;;18.80;72.40;;;;;;4896361;29;20079;-75
2022/07/24 06:09:04;;;;;;;2.45;1.98;;;18.80;72.40;;;;;;4896054;29;20104;-75
2022/07/24 06:11:29;;;;;;;2.85;1.80;;;18.90;72.40;;;;;;4879730;29;20028;-75
2022/07/24 06:13:55;;;;;;;3.00;1.90;;;18.90;72.30;;;;;;4880835;29;20559;-75
2022/07/24 06:16:21;;;;;;;2.75;1.92;;;19.00;72.20;;;;;;4901393;29;20424;-75
2022/07/24 06:18:47;;;;;;;3.17;2.25;;;19.00;72.10;;;;;;4899411;29;20047;-74
2022/07/24 06:21:12;;;;;;;2.78;2.00;;;19.10;72.00;;;;;;4882586;29;20380;-75
2022/07/24 06:23:38;;;;;;;3.20;2.13;;;19.20;72.00;;;;;;4901867;29;20353;-75
2022/07/24 06:26:04;;;;;;;3.45;2.10;;;19.20;71.90;;;;;;4883099;29;20048;-74
2022/07/24 06:28:30;;;;;;;1.92;1.60;;;19.30;71.90;;;;;;4899117;29;20040;-75
2022/07/24 06:30:57;;;;;;;2.42;1.73;;;19.30;71.80;;;;;;4882318;29;20051;-75
2022/07/24 06:33:22;;;;;;;2.58;1.50;;;19.30;71.80;;;;;;4882561;29;20083;-75
2022/07/24 06:35:48;;;;;;;2.15;1.50;;;19.30;71.80;;;;;;4899134;29;20466;-75
2022/07/24 06:38:15;;;;;;;1.83;1.40;;;19.40;71.80;;;;;;4882346;29;20119;-75
2022/07/24 06:40:42;;;;;;;3.30;1.80;;;19.50;71.80;;;;;;4900702;29;20036;-75
2022/07/24 06:43:07;;;;;;;2.45;1.73;;;19.50;71.70;;;;;;4881908;29;20035;-74
2022/07/24 06:45:33;;;;;;;2.38;1.63;;;19.60;71.60;;;;;;4882112;29;20041;-74
2022/07/24 06:48:00;;;;;;;3.58;2.22;;;19.70;71.40;;;;;;4899001;29;20045;-74
2022/07/24 06:50:27;;;;;;;3.17;2.30;;;19.80;71.30;;;;;;4881726;29;20043;-74
2022/07/24 06:52:52;;;;;;;2.03;1.70;;;19.90;71.10;;;;;;4882088;29;20035;-74
2022/07/24 06:55:18;;;;;;;2.83;1.63;;;19.90;70.90;;;;;;4898769;29;20033;-75
2022/07/24 06:57:44;;;;;;;3.28;2.25;;;20.10;70.80;;;;;;4881836;29;20106;-75
2022/07/24 07:00:11;;;;;;;2.45;1.83;;;20.20;70.60;;;;;;4898705;29;20048;-75
2022/07/24 07:02:37;;;;;;;2.35;1.70;;;20.20;70.30;;;;;;4882059;29;20137;-74
2022/07/24 07:05:05;;;;;;;2.63;1.67;;;20.40;70.30;;;;;;4882319;29;20036;-74
2022/07/24 07:07:31;;;;;;;3.13;2.13;;;20.50;70.10;;;;;;4898675;29;20132;-74
2022/07/24 07:09:57;;;;;;;4.03;2.28;;;20.60;69.80;;;;;;4898917;29;20041;-74
2022/07/24 07:12:23;;;;;;;2.53;2.03;;;20.70;69.60;;;;;;4898594;29;20113;-75
2022/07/24 07:14:49;;;;;;;2.38;1.70;;;20.80;69.40;;;;;;4881712;29;20064;-75
2022/07/24 07:17:15;;;;;;;1.65;1.40;;;21.00;69.20;;;;;;4881646;29;20044;-74
2022/07/24 07:19:42;;;;;;;3.17;1.80;;;21.10;69.00;;;;;;4898518;29;20120;-74
2022/07/24 07:22:09;;;;;;;2.20;1.50;;;21.20;68.70;;;;;;4898971;29;20081;-74
2022/07/24 07:24:35;;;;;;;3.10;2.00;;;21.40;68.50;;;;;;4897797;29;20391;-74
2022/07/24 07:27:00;;;;;;;2.28;1.65;;;21.50;68.10;;;;;;4898099;29;20060;-74
2022/07/24 07:29:26;;;;;;;1.30;1.20;;;21.60;67.90;;;;;;4898151;29;20040;-74
2022/07/24 07:31:52;;;;;;;1.55;1.30;;;21.80;67.70;;;;;;4899464;29;20032;-75
2022/07/24 07:34:18;;;;;;;1.63;1.27;;;22.00;67.60;;;;;;4898242;29;20119;-74
2022/07/24 07:36:44;;;;;;;1.67;1.20;;;22.10;67.30;;;;;;4897111;29;20041;-75
2022/07/24 07:39:09;;;;;;;1.08;0.98;;;22.30;67.00;;;;;;4881792;29;20153;-75
2022/07/24 07:41:35;;;;;;;1.60;1.23;;;22.50;66.80;;;;;;4865928;29;20147;-74
2022/07/24 07:44:01;;;;;;;1.60;1.10;;;22.70;66.40;;;;;;4899433;29;20496;-74
2022/07/24 07:46:27;;;;;;;1.52;1.20;;;22.90;66.20;;;;;;4898528;29;20068;-74
2022/07/24 07:48:53;;;;;;;1.65;1.30;;;23.00;66.00;;;;;;4898063;29;20387;-74
2022/07/24 07:51:19;;;;;;;1.67;1.30;;;23.10;65.70;;;;;;4898546;29;20144;-73
2022/07/24 07:53:45;;;;;;;2.15;1.50;;;23.30;65.40;;;;;;4897728;29;20525;-74
2022/07/24 07:56:11;;;;;;;1.85;1.20;;;23.40;65.20;;;;;;4897929;29;20037;-73
2022/07/24 07:58:37;;;;;;;1.58;1.20;;;23.40;65.10;;;;;;4897754;29;20372;-74
2022/07/24 08:01:03;;;;;;;1.85;1.20;;;23.50;65.00;;;;;;4880928;29;20048;-73
2022/07/24 08:03:29;;;;;;;1.40;1.20;;;23.60;64.60;;;;;;4898276;29;20047;-73
2022/07/24 08:05:55;;;;;;;1.73;1.40;;;23.80;64.50;;;;;;4880988;29;20132;-73
2022/07/24 08:08:20;;;;;;;1.45;1.10;;;23.90;64.30;;;;;;4898275;29;20070;-73
2022/07/24 08:10:46;;;;;;;0.88;0.82;;;24.00;64.10;;;;;;4897938;29;20092;-74
2022/07/24 08:13:14;;;;;;;1.15;1.05;;;24.20;64.00;;;;;;4897569;29;20024;-73
2022/07/24 08:15:41;;;;;;;1.30;1.02;;;24.30;63.80;;;;;;4880643;29;20047;-73
2022/07/24 08:18:07;;;;;;;0.90;0.85;;;24.40;63.40;;;;;;4880720;29;20052;-74
2022/07/24 08:20:33;;;;;;;1.20;1.10;;;24.50;63.30;;;;;;4897498;29;20123;-73
2022/07/24 08:22:59;;;;;;;1.40;1.08;;;24.60;63.00;;;;;;4897398;29;20135;-74
2022/07/24 08:25:26;;;;;;;0.82;0.80;;;24.70;63.00;;;;;;4897399;29;20101;-74
2022/07/24 08:27:52;;;;;;;1.23;0.90;;;24.80;62.90;;;;;;4897193;29;21716;-74
2022/07/24 08:30:18;;;;;;;1.20;1.10;;;24.90;62.90;;;;;;4897534;29;20040;-74
2022/07/24 08:32:44;;;;;;;1.10;0.90;;;25.00;62.60;;;;;;4897456;29;20112;-74
2022/07/24 08:35:10;;;;;;;0.98;0.90;;;25.10;62.50;;;;;;4897265;29;20066;-73
2022/07/24 08:37:37;;;;;;;1.73;1.08;;;25.30;62.30;;;;;;4899249;29;20064;-72
2022/07/24 08:40:04;;;;;;;0.85;0.80;;;25.40;62.00;;;;;;4880426;29;20131;-73
2022/07/24 08:42:30;;;;;;;0.93;0.90;;;25.50;61.90;;;;;;4896796;29;20601;-73
2022/07/24 08:44:56;;;;;;;1.10;1.00;;;25.60;61.80;;;;;;4897177;29;20170;-72
2022/07/24 08:47:25;;;;;;;1.20;1.10;;;25.70;61.50;;;;;;4879052;29;20052;-72
2022/07/24 08:49:53;;;;;;;0.80;0.80;;;25.80;61.40;;;;;;4897227;29;20514;-72
2022/07/24 08:52:21;;;;;;;1.90;0.98;;;25.80;61.30;;;;;;4897119;29;20033;-73
2022/07/24 08:54:47;;;;;;;1.10;1.00;;;25.70;61.20;;;;;;4898498;29;20104;-73
2022/07/24 08:57:13;;;;;;;0.93;0.93;;;25.80;61.50;;;;;;4897284;29;20096;-73
2022/07/24 08:59:39;;;;;;;0.82;0.82;;;25.80;61.20;;;;;;4878943;29;20124;-73
2022/07/24 09:02:05;;;;;;;0.88;0.88;;;25.90;61.10;;;;;;4880786;29;20041;-73
2022/07/24 09:04:42;;;;;;;1.67;0.90;;;26.00;61.00;;;;;;4898009;29;20522;-74
2022/07/24 09:07:10;;;;;;;0.70;0.70;;;26.20;60.90;;;;;;4897924;29;20072;-73
2022/07/24 09:09:37;;;;;;;0.95;0.93;;;26.30;60.70;;;;;;4880055;29;20503;-73
2022/07/24 09:12:07;;;;;;;2.00;1.15;;;26.40;60.40;;;;;;4897927;29;20495;-73
2022/07/24 09:14:34;;;;;;;1.25;1.02;;;26.40;60.40;;;;;;4876546;29;20041;-73
2022/07/24 09:17:06;;;;;;;1.38;1.00;;;26.50;60.30;;;;;;4862894;29;20043;-73
2022/07/24 09:19:50;;;;;;;0.90;0.90;;;26.60;60.10;;;;;;4915690;29;20032;-73
2022/07/24 09:22:26;;;;;;;1.10;1.00;;;26.60;60.00;;;;;;4893394;29;20040;-73
2022/07/24 09:25:05;;;;;;;1.10;1.00;;;26.60;60.00;;;;;;4896246;29;20037;-73
2022/07/24 09:27:31;;;;;;;1.00;0.90;;;26.60;59.90;;;;;;4878603;29;20037;-73
2022/07/24 09:29:57;;;;;;;1.10;1.00;;;26.60;59.90;;;;;;4896578;29;20044;-73
2022/07/24 09:32:24;;;;;;;1.02;0.95;;;26.70;59.90;;;;;;4878496;29;20041;-73
2022/07/24 09:34:52;;;;;;;0.85;0.85;;;26.70;59.70;;;;;;4896484;29;20037;-73
2022/07/24 09:37:19;;;;;;;1.00;1.00;;;26.80;59.70;;;;;;4896527;29;20041;-73
2022/07/24 09:39:45;;;;;;;0.80;0.80;;;26.90;59.60;;;;;;4896178;29;20165;-74
2022/07/24 09:42:11;;;;;;;1.20;1.10;;;26.90;59.30;;;;;;4896090;29;20123;-73
2022/07/24 09:44:38;;;;;;;1.00;0.90;;;26.90;59.10;;;;;;4896619;29;20044;-73
2022/07/24 09:47:07;;;;;;;0.77;0.77;;;26.90;59.30;;;;;;4896324;29;20496;-74
2022/07/24 09:49:34;;;;;;;1.05;0.95;;;27.00;59.20;;;;;;4882543;29;20511;-73
2022/07/24 09:52:18;;;;;;;0.93;0.93;;;27.00;59.20;;;;;;4900011;29;20045;-73
2022/07/24 09:54:47;;;;;;;0.80;0.80;;;27.20;59.00;;;;;;4899278;29;20037;-73
2022/07/24 09:57:20;;;;;;;0.75;0.75;;;27.10;59.00;;;;;;4899857;29;20032;-73
2022/07/24 09:59:49;;;;;;;1.20;1.10;;;27.10;58.90;;;;;;4898152;29;20717;-73
2022/07/24 10:02:18;;;;;;;0.82;0.82;;;27.20;58.60;;;;;;4899605;29;20041;-73
2022/07/24 10:04:45;;;;;;;1.20;1.10;;;27.10;58.60;;;;;;4880827;29;20039;-73
2022/07/24 10:07:13;;;;;;;1.00;0.90;;;27.10;58.50;;;;;;4899645;29;20124;-74
2022/07/24 10:09:43;;;;;;;1.10;1.00;;;27.10;58.50;;;;;;4882557;29;20049;-73
2022/07/24 10:12:13;;;;;;;1.17;0.80;;;27.10;58.40;;;;;;4880834;29;20436;-73
2022/07/24 10:14:41;;;;;;;0.77;0.77;;;27.20;58.40;;;;;;4899687;29;20487;-73
2022/07/24 10:17:09;;;;;;;1.35;0.65;;;27.40;58.20;;;;;;4876684;29;20045;-74
2022/07/24 10:19:40;;;;;;;0.80;0.80;;;27.60;57.90;;;;;;4899392;29;20140;-74
2022/07/24 10:22:11;;;;;;;0.80;0.80;;;27.70;57.60;;;;;;4898212;29;20119;-73
2022/07/24 10:24:55;;;;;;;0.90;0.90;;;27.70;57.40;;;;;;4899780;29;20052;-73
2022/07/24 10:27:25;;;;;;;0.70;0.70;;;27.80;57.10;;;;;;4891141;29;20049;-74
2022/07/24 10:29:55;;;;;;;1.02;0.93;;;27.80;57.40;;;;;;4898413;29;20041;-73
2022/07/24 10:32:22;;;;;;;1.48;1.10;;;27.80;57.30;;;;;;4897624;29;20080;-73
2022/07/24 10:35:06;;;;;;;1.08;1.00;;;27.70;57.20;;;;;;4882990;29;20032;-72
2022/07/24 10:37:54;;;;;;;0.98;0.90;;;27.70;57.30;;;;;;4893118;29;20120;-73
2022/07/24 10:40:44;;;;;;;0.80;0.80;;;27.60;57.10;;;;;;4884221;29;20052;-73
2022/07/24 10:43:13;;;;;;;0.80;0.80;;;27.70;57.10;;;;;;4897926;29;20041;-72
2022/07/24 10:45:43;;;;;;;1.02;0.93;;;27.70;57.00;;;;;;4881905;29;20036;-73
2022/07/24 10:48:28;;;;;;;1.10;1.00;;;27.70;56.80;;;;;;4898818;29;20045;-73
2022/07/24 10:51:07;;;;;;;1.20;1.10;;;27.70;56.80;;;;;;4897897;29;20045;-73
2022/07/24 10:53:45;;;;;;;1.23;0.88;;;27.80;56.40;;;;;;4898922;29;20124;-72
2022/07/24 10:56:28;;;;;;;0.82;0.82;;;27.70;56.50;;;;;;4881178;29;20480;-73
2022/07/24 10:58:59;;;;;;;0.80;0.80;;;27.80;56.70;;;;;;4898932;29;20040;-74
2022/07/24 11:01:32;;;;;;;0.88;0.80;;;27.90;56.30;;;;;;4867455;29;20091;-73
2022/07/24 11:03:59;;;;;;;0.68;0.65;;;28.10;56.10;;;;;;4895834;29;20044;-74
2022/07/24 11:06:45;;;;;;;0.65;0.65;;;28.20;56.00;;;;;;4899247;29;20048;-74
2022/07/24 11:09:12;;;;;;;0.90;0.90;;;28.30;55.80;;;;;;4882012;29;20566;-74
2022/07/24 11:12:03;;;;;;;0.80;0.80;;;28.30;55.60;;;;;;4866504;29;20128;-74
2022/07/24 11:14:47;;;;;;;0.70;0.70;;;28.30;55.60;;;;;;4885112;29;20033;-75
2022/07/24 11:17:40;;;;;;;0.90;0.90;;;28.40;55.50;;;;;;4898393;29;20385;-73
2022/07/24 11:20:10;;;;;;;0.90;0.85;;;28.40;55.40;;;;;;4897751;29;20039;-73
2022/07/24 11:22:43;;;;;;;1.20;1.10;;;28.40;55.40;;;;;;4881732;29;20052;-73
2022/07/24 11:25:13;;;;;;;0.93;0.90;;;28.30;55.30;;;;;;4881383;29;20531;-73
2022/07/24 11:27:57;;;;;;;1.05;0.95;;;28.20;55.40;;;;;;4881834;29;20052;-73
2022/07/24 11:30:26;;;;;;;1.02;0.98;;;28.20;55.40;;;;;;4879922;29;20041;-74
2022/07/24 11:32:52;;;;;;;1.15;1.05;;;28.30;55.40;;;;;;4881321;29;20037;-73
2022/07/24 11:35:27;;;;;;;0.90;0.80;;;28.50;55.20;;;;;;4898279;29;20041;-73
2022/07/24 11:37:53;;;;;;;0.82;0.82;;;28.60;55.00;;;;;;4897791;29;20048;-74
2022/07/24 11:40:21;;;;;;;0.93;0.93;;;28.60;54.80;;;;;;4884575;29;20041;-74
2022/07/24 11:42:56;;;;;;;0.90;0.90;;;28.70;54.70;;;;;;4880188;29;20488;-74
2022/07/24 11:45:22;;;;;;;0.80;0.80;;;28.70;54.60;;;;;;4880360;29;20456;-74
2022/07/24 11:47:47;;;;;;;0.85;0.85;;;28.90;54.60;;;;;;4897914;29;20049;-73
2022/07/24 11:50:13;;;;;;;1.05;0.90;;;28.80;54.60;;;;;;4898881;29;20037;-74
2022/07/24 11:52:41;;;;;;;0.80;0.80;;;28.80;54.60;;;;;;4897894;29;20472;-73
2022/07/24 11:55:11;;;;;;;0.77;0.77;;;28.90;54.50;;;;;;4898511;29;20044;-73
2022/07/24 11:57:39;;;;;;;0.70;0.70;;;28.90;54.30;;;;;;4866151;29;20376;-74
2022/07/24 12:00:11;;;;;;;0.75;0.75;;;29.00;54.30;;;;;;4896503;29;20045;-74
2022/07/24 12:02:46;;;;;;;0.93;0.88;;;29.00;54.30;;;;;;4880585;29;20062;-74
2022/07/24 12:05:12;;;;;;;0.80;0.80;;;29.10;54.50;;;;;;4896623;29;20108;-74
2022/07/24 12:07:38;;;;;;;1.00;1.00;;;29.00;54.30;;;;;;4909331;29;20102;-73
2022/07/24 12:10:04;;;;;;;1.20;1.10;;;28.90;54.30;;;;;;4878305;29;20495;-73
2022/07/24 12:12:38;;;;;;;1.25;1.10;;;28.90;54.20;;;;;;4899253;29;20068;-73
2022/07/24 12:15:07;;;;;;;1.80;1.25;;;29.00;54.40;;;;;;4901278;29;20467;-74
2022/07/24 12:17:35;;;;;;;0.88;0.88;;;29.00;54.20;;;;;;4917070;29;20096;-74
2022/07/24 12:20:06;;;;;;;1.30;1.00;;;28.90;54.30;;;;;;4916928;29;20099;-74
2022/07/24 12:22:32;;;;;;;1.02;0.88;;;29.00;54.30;;;;;;4916618;29;20071;-74
2022/07/24 12:24:59;;;;;;;0.70;0.70;;;29.10;54.30;;;;;;4916956;29;20044;-74
2022/07/24 12:27:35;;;;;;;1.40;1.08;;;29.10;54.20;;;;;;4899729;29;20052;-74
2022/07/24 12:30:00;;;;;;;1.00;0.85;;;29.00;54.30;;;;;;4897294;29;20496;-74
2022/07/24 12:32:26;;;;;;;0.85;0.80;;;29.00;54.40;;;;;;4897614;29;20090;-74
2022/07/24 12:34:52;;;;;;;0.70;0.70;;;29.00;54.40;;;;;;4895768;29;20383;-73
2022/07/24 12:37:20;;;;;;;0.90;0.90;;;29.00;54.50;;;;;;4880561;29;20124;-73
2022/07/24 12:39:52;;;;;;;0.80;0.80;;;29.00;54.50;;;;;;4897193;29;20069;-73
2022/07/24 12:42:28;;;;;;;0.90;0.90;;;29.00;54.30;;;;;;4896069;29;20037;-72
2022/07/24 12:44:54;;;;;;;0.88;0.88;;;29.00;54.30;;;;;;4880287;29;20120;-72
2022/07/24 12:47:20;;;;;;;0.90;0.90;;;29.10;54.20;;;;;;4900092;29;20064;-75
2022/07/24 12:49:46;;;;;;;0.90;0.90;;;29.00;54.10;;;;;;4899533;29;20047;-72